sensor_id;sensor_type;location;lat;lon;timestamp;P1;durP1;ratioP1;P2;durP2;ratioP2
22606;SDS011;11470;20.968;105.834;2022-07-22T00:02:04;17.00;;;11.32;;
22606;SDS011;11470;20.968;105.834;2022-07-22T00:07:09;15.25;;;10.90;;
22606;SDS011;11470;20.968;105.834;2022-07-22T00:12:14;12.48;;;8.70;;
22606;SDS011;11470;20.968;105.834;2022-07-22T00:17:20;14.27;;;9.65;;
22606;SDS011;11470;20.968;105.834;2022-07-22T00:22:25;23.17;;;13.20;;
22606;SDS011;11470;20.968;105.834;2022-07-22T00:27:31;25.70;;;13.40;;
22606;SDS011;11470;20.968;105.834;2022-07-22T00:32:36;25.80;;;15.77;;
22606;SDS011;11470;20.968;105.834;2022-07-22T00:37:42;24.80;;;14.07;;
22606;SDS011;11470;20.968;105.834;2022-07-22T00:47:52;16.08;;;9.68;;
22606;SDS011;11470;20.968;105.834;2022-07-22T00:52:58;22.73;;;12.45;;
22606;SDS011;11470;20.968;105.834;2022-07-22T00:58:04;18.25;;;9.77;;
22606;SDS011;11470;20.968;105.834;2022-07-22T01:08:16;16.63;;;10.38;;
22606;SDS011;11470;20.968;105.834;2022-07-22T01:13:22;29.58;;;16.30;;
22606;SDS011;11470;20.968;105.834;2022-07-22T01:18:28;23.90;;;13.52;;
22606;SDS011;11470;20.968;105.834;2022-07-22T01:23:34;33.22;;;18.63;;
22606;SDS011;11470;20.968;105.834;2022-07-22T01:28:41;28.13;;;17.02;;
22606;SDS011;11470;20.968;105.834;2022-07-22T01:33:48;25.73;;;15.48;;
22606;SDS011;11470;20.968;105.834;2022-07-22T01:38:53;26.55;;;13.73;;
22606;SDS011;11470;20.968;105.834;2022-07-22T01:44:01;22.33;;;12.95;;
22606;SDS011;11470;20.968;105.834;2022-07-22T01:49:08;30.80;;;14.25;;
22606;SDS011;11470;20.968;105.834;2022-07-22T01:54:14;18.25;;;9.82;;
22606;SDS011;11470;20.968;105.834;2022-07-22T01:59:20;16.92;;;8.95;;
22606;SDS011;11470;20.968;105.834;2022-07-22T02:09:31;14.77;;;7.78;;
22606;SDS011;11470;20.968;105.834;2022-07-22T02:14:36;18.02;;;7.72;;
22606;SDS011;11470;20.968;105.834;2022-07-22T02:19:42;15.88;;;7.93;;
22606;SDS011;11470;20.968;105.834;2022-07-22T02:24:48;11.10;;;6.07;;
22606;SDS011;11470;20.968;105.834;2022-07-22T02:29:54;11.85;;;7.03;;
22606;SDS011;11470;20.968;105.834;2022-07-22T02:35:00;11.55;;;6.57;;
22606;SDS011;11470;20.968;105.834;2022-07-22T02:40:06;11.60;;;7.30;;
22606;SDS011;11470;20.968;105.834;2022-07-22T02:45:13;14.45;;;6.82;;
22606;SDS011;11470;20.968;105.834;2022-07-22T02:50:20;20.95;;;7.95;;
22606;SDS011;11470;20.968;105.834;2022-07-22T02:55:30;12.73;;;5.70;;
22606;SDS011;11470;20.968;105.834;2022-07-22T03:00:38;13.02;;;6.78;;
22606;SDS011;11470;20.968;105.834;2022-07-22T03:05:48;14.75;;;7.10;;
22606;SDS011;11470;20.968;105.834;2022-07-22T03:10:59;14.82;;;6.25;;
22606;SDS011;11470;20.968;105.834;2022-07-22T03:16:05;13.35;;;5.80;;
22606;SDS011;11470;20.968;105.834;2022-07-22T03:21:13;9.95;;;6.38;;
22606;SDS011;11470;20.968;105.834;2022-07-22T03:26:20;12.60;;;6.45;;
22606;SDS011;11470;20.968;105.834;2022-07-22T03:31:27;13.15;;;6.80;;
22606;SDS011;11470;20.968;105.834;2022-07-22T03:37:03;12.10;;;6.95;;
22606;SDS011;11470;20.968;105.834;2022-07-22T03:42:15;9.93;;;4.13;;
22606;SDS011;11470;20.968;105.834;2022-07-22T03:47:22;6.65;;;3.15;;
22606;SDS011;11470;20.968;105.834;2022-07-22T03:52:28;7.20;;;3.85;;
22606;SDS011;11470;20.968;105.834;2022-07-22T03:57:36;9.98;;;3.22;;
22606;SDS011;11470;20.968;105.834;2022-07-22T04:02:50;9.80;;;4.95;;
22606;SDS011;11470;20.968;105.834;2022-07-22T04:08:16;8.63;;;3.67;;
22606;SDS011;11470;20.968;105.834;2022-07-22T04:13:22;8.43;;;3.42;;
22606;SDS011;11470;20.968;105.834;2022-07-22T04:18:30;9.23;;;4.00;;
22606;SDS011;11470;20.968;105.834;2022-07-22T04:23:37;7.63;;;4.93;;
22606;SDS011;11470;20.968;105.834;2022-07-22T04:29:02;7.88;;;4.20;;
22606;SDS011;11470;20.968;105.834;2022-07-22T04:34:09;8.95;;;4.22;;
22606;SDS011;11470;20.968;105.834;2022-07-22T04:39:14;7.15;;;3.85;;
22606;SDS011;11470;20.968;105.834;2022-07-22T04:44:25;8.38;;;4.60;;
22606;SDS011;11470;20.968;105.834;2022-07-22T04:49:32;8.65;;;3.55;;
22606;SDS011;11470;20.968;105.834;2022-07-22T04:54:40;5.43;;;2.92;;
22606;SDS011;11470;20.968;105.834;2022-07-22T05:04:51;6.07;;;2.70;;
22606;SDS011;11470;20.968;105.834;2022-07-22T05:10:02;5.20;;;3.00;;
22606;SDS011;11470;20.968;105.834;2022-07-22T05:15:09;8.57;;;3.05;;
22606;SDS011;11470;20.968;105.834;2022-07-22T05:20:16;6.82;;;3.40;;
22606;SDS011;11470;20.968;105.834;2022-07-22T05:25:22;6.22;;;3.60;;
22606;SDS011;11470;20.968;105.834;2022-07-22T05:30:28;6.68;;;3.20;;
22606;SDS011;11470;20.968;105.834;2022-07-22T05:35:36;6.25;;;2.50;;
22606;SDS011;11470;20.968;105.834;2022-07-22T05:40:46;6.35;;;2.33;;
22606;SDS011;11470;20.968;105.834;2022-07-22T05:45:52;5.32;;;2.47;;
22606;SDS011;11470;20.968;105.834;2022-07-22T05:51:04;4.72;;;1.95;;
22606;SDS011;11470;20.968;105.834;2022-07-22T05:56:23;5.95;;;2.50;;
22606;SDS011;11470;20.968;105.834;2022-07-22T06:01:46;7.95;;;4.32;;
22606;SDS011;11470;20.968;105.834;2022-07-22T06:07:15;10.93;;;5.50;;
22606;SDS011;11470;20.968;105.834;2022-07-22T06:12:26;10.98;;;6.18;;
22606;SDS011;11470;20.968;105.834;2022-07-22T06:17:32;7.43;;;5.13;;
22606;SDS011;11470;20.968;105.834;2022-07-22T06:22:41;8.88;;;6.43;;
22606;SDS011;11470;20.968;105.834;2022-07-22T06:27:46;11.45;;;6.85;;
22606;SDS011;11470;20.968;105.834;2022-07-22T06:32:52;14.18;;;6.82;;
22606;SDS011;11470;20.968;105.834;2022-07-22T06:37:58;9.15;;;4.45;;
22606;SDS011;11470;20.968;105.834;2022-07-22T06:43:42;6.28;;;3.30;;
22606;SDS011;11470;20.968;105.834;2022-07-22T06:49:06;4.82;;;2.72;;
22606;SDS011;11470;20.968;105.834;2022-07-22T06:54:16;5.43;;;3.40;;
22606;SDS011;11470;20.968;105.834;2022-07-22T06:59:43;5.55;;;3.10;;
22606;SDS011;11470;20.968;105.834;2022-07-22T07:04:48;8.57;;;3.35;;
22606;SDS011;11470;20.968;105.834;2022-07-22T07:09:53;7.45;;;2.30;;
22606;SDS011;11470;20.968;105.834;2022-07-22T07:15:29;4.65;;;3.47;;
22606;SDS011;11470;20.968;105.834;2022-07-22T07:20:40;5.35;;;1.80;;
22606;SDS011;11470;20.968;105.834;2022-07-22T07:25:50;4.95;;;2.22;;
22606;SDS011;11470;20.968;105.834;2022-07-22T07:30:55;3.70;;;2.47;;
22606;SDS011;11470;20.968;105.834;2022-07-22T07:36:05;1.52;;;1.40;;
22606;SDS011;11470;20.968;105.834;2022-07-22T07:41:15;5.15;;;1.38;;
22606;SDS011;11470;20.968;105.834;2022-07-22T07:46:55;3.80;;;2.35;;
22606;SDS011;11470;20.968;105.834;2022-07-22T07:52:12;3.35;;;2.40;;
22606;SDS011;11470;20.968;105.834;2022-07-22T07:57:21;4.10;;;2.40;;
22606;SDS011;11470;20.968;105.834;2022-07-22T08:02:33;6.15;;;3.05;;
22606;SDS011;11470;20.968;105.834;2022-07-22T08:07:44;4.67;;;2.50;;
22606;SDS011;11470;20.968;105.834;2022-07-22T08:12:50;4.93;;;2.13;;
22606;SDS011;11470;20.968;105.834;2022-07-22T08:18:20;6.40;;;2.03;;
22606;SDS011;11470;20.968;105.834;2022-07-22T08:23:26;3.80;;;1.40;;
22606;SDS011;11470;20.968;105.834;2022-07-22T08:28:33;2.78;;;1.90;;
22606;SDS011;11470;20.968;105.834;2022-07-22T08:33:43;5.15;;;2.00;;
22606;SDS011;11470;20.968;105.834;2022-07-22T08:38:56;4.30;;;1.80;;
22606;SDS011;11470;20.968;105.834;2022-07-22T08:44:09;5.55;;;1.85;;
22606;SDS011;11470;20.968;105.834;2022-07-22T08:49:27;4.13;;;1.92;;
22606;SDS011;11470;20.968;105.834;2022-07-22T08:54:36;5.18;;;1.90;;
22606;SDS011;11470;20.968;105.834;2022-07-22T08:59:55;4.97;;;1.98;;
22606;SDS011;11470;20.968;105.834;2022-07-22T09:05:07;5.35;;;2.00;;
22606;SDS011;11470;20.968;105.834;2022-07-22T09:10:49;4.97;;;3.17;;
22606;SDS011;11470;20.968;105.834;2022-07-22T09:22:37;5.20;;;2.30;;
22606;SDS011;11470;20.968;105.834;2022-07-22T09:33:35;4.22;;;1.90;;
22606;SDS011;11470;20.968;105.834;2022-07-22T09:39:00;7.68;;;2.47;;
22606;SDS011;11470;20.968;105.834;2022-07-22T09:44:34;6.28;;;2.03;;
22606;SDS011;11470;20.968;105.834;2022-07-22T09:50:21;8.75;;;4.10;;
22606;SDS011;11470;20.968;105.834;2022-07-22T09:55:46;7.68;;;2.80;;
22606;SDS011;11470;20.968;105.834;2022-07-22T10:00:53;4.47;;;2.50;;
22606;SDS011;11470;20.968;105.834;2022-07-22T10:06:06;4.38;;;2.25;;
22606;SDS011;11470;20.968;105.834;2022-07-22T10:11:14;5.32;;;2.38;;
22606;SDS011;11470;20.968;105.834;2022-07-22T10:16:20;4.03;;;2.10;;
22606;SDS011;11470;20.968;105.834;2022-07-22T10:21:34;5.22;;;2.20;;
22606;SDS011;11470;20.968;105.834;2022-07-22T10:26:50;4.63;;;2.47;;
22606;SDS011;11470;20.968;105.834;2022-07-22T10:43:02;7.22;;;2.83;;
22606;SDS011;11470;20.968;105.834;2022-07-22T10:48:12;2.85;;;1.80;;
22606;SDS011;11470;20.968;105.834;2022-07-22T10:53:24;3.30;;;2.15;;
22606;SDS011;11470;20.968;105.834;2022-07-22T10:58:55;4.43;;;2.42;;
22606;SDS011;11470;20.968;105.834;2022-07-22T11:04:21;7.18;;;2.85;;
22606;SDS011;11470;20.968;105.834;2022-07-22T11:09:31;5.45;;;2.88;;
22606;SDS011;11470;20.968;105.834;2022-07-22T11:14:39;4.90;;;2.33;;
22606;SDS011;11470;20.968;105.834;2022-07-22T11:19:44;8.85;;;2.72;;
22606;SDS011;11470;20.968;105.834;2022-07-22T11:24:49;3.97;;;2.30;;
22606;SDS011;11470;20.968;105.834;2022-07-22T11:29:55;6.50;;;2.17;;
22606;SDS011;11470;20.968;105.834;2022-07-22T11:35:01;4.43;;;2.00;;
22606;SDS011;11470;20.968;105.834;2022-07-22T11:40:10;2.63;;;2.17;;
22606;SDS011;11470;20.968;105.834;2022-07-22T11:45:16;5.15;;;2.30;;
22606;SDS011;11470;20.968;105.834;2022-07-22T11:50:31;7.30;;;2.60;;
22606;SDS011;11470;20.968;105.834;2022-07-22T11:55:37;6.63;;;2.67;;
22606;SDS011;11470;20.968;105.834;2022-07-22T12:00:43;7.22;;;2.55;;
22606;SDS011;11470;20.968;105.834;2022-07-22T12:05:49;6.93;;;2.83;;
22606;SDS011;11470;20.968;105.834;2022-07-22T12:10:55;7.07;;;3.20;;
22606;SDS011;11470;20.968;105.834;2022-07-22T12:16:15;7.47;;;2.85;;
22606;SDS011;11470;20.968;105.834;2022-07-22T12:21:49;9.32;;;3.05;;
22606;SDS011;11470;20.968;105.834;2022-07-22T12:26:59;6.73;;;3.73;;
22606;SDS011;11470;20.968;105.834;2022-07-22T12:32:10;10.77;;;3.97;;
22606;SDS011;11470;20.968;105.834;2022-07-22T12:37:43;8.00;;;3.13;;
22606;SDS011;11470;20.968;105.834;2022-07-22T12:48:16;12.87;;;3.50;;
22606;SDS011;11470;20.968;105.834;2022-07-22T12:53:22;9.80;;;4.13;;
22606;SDS011;11470;20.968;105.834;2022-07-22T12:58:28;10.60;;;4.32;;
22606;SDS011;11470;20.968;105.834;2022-07-22T13:03:47;9.38;;;4.30;;
22606;SDS011;11470;20.968;105.834;2022-07-22T13:08:57;7.15;;;4.22;;
22606;SDS011;11470;20.968;105.834;2022-07-22T13:14:02;11.25;;;4.38;;
22606;SDS011;11470;20.968;105.834;2022-07-22T13:24:20;11.77;;;4.95;;
22606;SDS011;11470;20.968;105.834;2022-07-22T13:29:26;14.48;;;4.18;;
22606;SDS011;11470;20.968;105.834;2022-07-22T13:39:37;11.70;;;4.45;;
22606;SDS011;11470;20.968;105.834;2022-07-22T13:44:48;11.95;;;4.45;;
22606;SDS011;11470;20.968;105.834;2022-07-22T13:49:55;6.32;;;3.30;;
22606;SDS011;11470;20.968;105.834;2022-07-22T13:55:01;7.35;;;3.38;;
22606;SDS011;11470;20.968;105.834;2022-07-22T14:00:09;12.13;;;4.43;;
22606;SDS011;11470;20.968;105.834;2022-07-22T14:05:16;7.35;;;4.45;;
22606;SDS011;11470;20.968;105.834;2022-07-22T14:10:22;10.25;;;4.78;;
22606;SDS011;11470;20.968;105.834;2022-07-22T14:15:28;11.63;;;6.38;;
22606;SDS011;11470;20.968;105.834;2022-07-22T14:20:47;12.25;;;5.97;;
22606;SDS011;11470;20.968;105.834;2022-07-22T14:25:52;12.30;;;5.32;;
22606;SDS011;11470;20.968;105.834;2022-07-22T14:30:57;11.75;;;4.93;;
22606;SDS011;11470;20.968;105.834;2022-07-22T14:36:03;11.18;;;6.13;;
22606;SDS011;11470;20.968;105.834;2022-07-22T14:51:21;13.30;;;6.37;;
22606;SDS011;11470;20.968;105.834;2022-07-22T14:56:27;16.25;;;7.78;;
22606;SDS011;11470;20.968;105.834;2022-07-22T15:01:36;14.95;;;8.57;;
22606;SDS011;11470;20.968;105.834;2022-07-22T15:06:42;16.58;;;7.55;;
22606;SDS011;11470;20.968;105.834;2022-07-22T15:12:13;14.82;;;6.95;;
22606;SDS011;11470;20.968;105.834;2022-07-22T15:17:39;15.73;;;7.93;;
22606;SDS011;11470;20.968;105.834;2022-07-22T15:22:52;16.58;;;7.90;;
22606;SDS011;11470;20.968;105.834;2022-07-22T15:27:58;15.40;;;8.18;;
22606;SDS011;11470;20.968;105.834;2022-07-22T15:33:33;9.95;;;5.55;;
22606;SDS011;11470;20.968;105.834;2022-07-22T15:38:40;11.38;;;6.22;;
22606;SDS011;11470;20.968;105.834;2022-07-22T15:43:49;14.32;;;5.93;;
22606;SDS011;11470;20.968;105.834;2022-07-22T15:49:02;15.15;;;7.50;;
22606;SDS011;11470;20.968;105.834;2022-07-22T15:54:21;15.85;;;7.78;;
22606;SDS011;11470;20.968;105.834;2022-07-22T15:59:30;12.00;;;7.28;;
22606;SDS011;11470;20.968;105.834;2022-07-22T16:09:52;12.43;;;6.32;;
22606;SDS011;11470;20.968;105.834;2022-07-22T16:14:58;10.27;;;5.78;;
22606;SDS011;11470;20.968;105.834;2022-07-22T16:20:03;62.83;;;36.85;;
22606;SDS011;11470;20.968;105.834;2022-07-22T16:25:12;17.50;;;6.82;;
22606;SDS011;11470;20.968;105.834;2022-07-22T16:30:17;15.40;;;7.30;;
22606;SDS011;11470;20.968;105.834;2022-07-22T16:35:26;13.05;;;7.28;;
22606;SDS011;11470;20.968;105.834;2022-07-22T16:40:32;13.82;;;7.30;;
22606;SDS011;11470;20.968;105.834;2022-07-22T16:50:42;12.45;;;6.70;;
22606;SDS011;11470;20.968;105.834;2022-07-22T17:00:52;17.55;;;7.88;;
22606;SDS011;11470;20.968;105.834;2022-07-22T17:05:57;16.43;;;6.67;;
22606;SDS011;11470;20.968;105.834;2022-07-22T17:11:03;16.00;;;6.80;;
22606;SDS011;11470;20.968;105.834;2022-07-22T17:16:10;16.92;;;6.88;;
22606;SDS011;11470;20.968;105.834;2022-07-22T17:26:21;10.07;;;5.45;;
22606;SDS011;11470;20.968;105.834;2022-07-22T17:31:27;12.52;;;6.50;;
22606;SDS011;11470;20.968;105.834;2022-07-22T17:36:32;10.63;;;6.15;;
22606;SDS011;11470;20.968;105.834;2022-07-22T17:41:37;11.67;;;7.83;;
22606;SDS011;11470;20.968;105.834;2022-07-22T17:46:43;13.82;;;8.10;;
22606;SDS011;11470;20.968;105.834;2022-07-22T17:51:51;13.80;;;8.73;;
22606;SDS011;11470;20.968;105.834;2022-07-22T17:56:59;14.00;;;7.28;;
22606;SDS011;11470;20.968;105.834;2022-07-22T18:02:04;10.55;;;6.28;;
22606;SDS011;11470;20.968;105.834;2022-07-22T18:07:09;10.97;;;6.37;;
22606;SDS011;11470;20.968;105.834;2022-07-22T18:12:14;14.77;;;8.77;;
22606;SDS011;11470;20.968;105.834;2022-07-22T18:17:20;11.37;;;6.33;;
22606;SDS011;11470;20.968;105.834;2022-07-22T18:27:30;12.38;;;8.52;;
22606;SDS011;11470;20.968;105.834;2022-07-22T18:32:36;11.38;;;6.63;;
22606;SDS011;11470;20.968;105.834;2022-07-22T18:37:41;11.93;;;7.80;;
22606;SDS011;11470;20.968;105.834;2022-07-22T18:42:47;15.60;;;8.02;;
22606;SDS011;11470;20.968;105.834;2022-07-22T18:47:52;11.65;;;9.07;;
22606;SDS011;11470;20.968;105.834;2022-07-22T18:58:02;16.67;;;10.40;;
22606;SDS011;11470;20.968;105.834;2022-07-22T19:03:07;21.43;;;12.30;;
22606;SDS011;11470;20.968;105.834;2022-07-22T19:08:13;14.05;;;8.45;;
22606;SDS011;11470;20.968;105.834;2022-07-22T19:13:25;15.50;;;9.07;;
22606;SDS011;11470;20.968;105.834;2022-07-22T19:18:30;18.35;;;12.35;;
22606;SDS011;11470;20.968;105.834;2022-07-22T19:23:36;18.40;;;11.75;;
22606;SDS011;11470;20.968;105.834;2022-07-22T19:28:41;26.40;;;13.27;;
22606;SDS011;11470;20.968;105.834;2022-07-22T19:33:46;18.80;;;11.43;;
22606;SDS011;11470;20.968;105.834;2022-07-22T19:38:52;19.33;;;13.10;;
22606;SDS011;11470;20.968;105.834;2022-07-22T19:49:03;22.33;;;15.82;;
22606;SDS011;11470;20.968;105.834;2022-07-22T19:54:09;21.30;;;13.23;;
22606;SDS011;11470;20.968;105.834;2022-07-22T19:59:16;23.85;;;14.70;;
22606;SDS011;11470;20.968;105.834;2022-07-22T20:04:21;21.10;;;14.57;;
22606;SDS011;11470;20.968;105.834;2022-07-22T20:09:26;22.55;;;17.63;;
22606;SDS011;11470;20.968;105.834;2022-07-22T20:14:32;31.45;;;19.77;;
22606;SDS011;11470;20.968;105.834;2022-07-22T20:19:37;23.05;;;16.50;;
22606;SDS011;11470;20.968;105.834;2022-07-22T20:24:43;23.33;;;17.85;;
22606;SDS011;11470;20.968;105.834;2022-07-22T20:29:48;32.27;;;22.87;;
22606;SDS011;11470;20.968;105.834;2022-07-22T20:34:54;29.10;;;20.92;;
22606;SDS011;11470;20.968;105.834;2022-07-22T20:39:59;31.67;;;23.67;;
22606;SDS011;11470;20.968;105.834;2022-07-22T20:50:09;29.25;;;20.63;;
22606;SDS011;11470;20.968;105.834;2022-07-22T20:55:15;44.47;;;30.45;;
22606;SDS011;11470;20.968;105.834;2022-07-22T21:00:20;44.55;;;28.25;;
22606;SDS011;11470;20.968;105.834;2022-07-22T21:05:26;57.90;;;35.67;;
22606;SDS011;11470;20.968;105.834;2022-07-22T21:10:31;27.90;;;18.40;;
22606;SDS011;11470;20.968;105.834;2022-07-22T21:15:36;31.35;;;22.17;;
22606;SDS011;11470;20.968;105.834;2022-07-22T21:20:42;38.97;;;26.92;;
22606;SDS011;11470;20.968;105.834;2022-07-22T21:25:47;48.30;;;31.73;;
22606;SDS011;11470;20.968;105.834;2022-07-22T21:30:52;59.70;;;37.40;;
22606;SDS011;11470;20.968;105.834;2022-07-22T21:41:03;54.95;;;34.80;;
22606;SDS011;11470;20.968;105.834;2022-07-22T21:46:08;55.80;;;33.83;;
22606;SDS011;11470;20.968;105.834;2022-07-22T21:51:13;48.93;;;30.67;;
22606;SDS011;11470;20.968;105.834;2022-07-22T21:56:19;40.28;;;26.10;;
22606;SDS011;11470;20.968;105.834;2022-07-22T22:01:42;40.38;;;27.27;;
22606;SDS011;11470;20.968;105.834;2022-07-22T22:06:49;50.17;;;30.05;;
22606;SDS011;11470;20.968;105.834;2022-07-22T22:11:55;50.72;;;29.90;;
22606;SDS011;11470;20.968;105.834;2022-07-22T22:17:00;42.97;;;28.90;;
22606;SDS011;11470;20.968;105.834;2022-07-22T22:22:08;50.70;;;30.88;;
22606;SDS011;11470;20.968;105.834;2022-07-22T22:27:13;61.60;;;35.83;;
22606;SDS011;11470;20.968;105.834;2022-07-22T22:32:19;53.20;;;31.63;;
22606;SDS011;11470;20.968;105.834;2022-07-22T22:37:24;63.85;;;35.70;;
22606;SDS011;11470;20.968;105.834;2022-07-22T22:42:29;57.45;;;33.67;;
22606;SDS011;11470;20.968;105.834;2022-07-22T22:47:34;66.43;;;37.57;;
22606;SDS011;11470;20.968;105.834;2022-07-22T22:52:40;56.67;;;32.92;;
22606;SDS011;11470;20.968;105.834;2022-07-22T22:57:45;68.85;;;36.85;;
22606;SDS011;11470;20.968;105.834;2022-07-22T23:02:50;74.60;;;37.00;;
22606;SDS011;11470;20.968;105.834;2022-07-22T23:07:57;79.72;;;42.30;;
22606;SDS011;11470;20.968;105.834;2022-07-22T23:13:02;73.65;;;40.50;;
22606;SDS011;11470;20.968;105.834;2022-07-22T23:23:17;64.27;;;35.17;;
22606;SDS011;11470;20.968;105.834;2022-07-22T23:28:25;87.03;;;44.42;;
22606;SDS011;11470;20.968;105.834;2022-07-22T23:33:31;82.10;;;41.30;;
22606;SDS011;11470;20.968;105.834;2022-07-22T23:38:36;64.67;;;36.67;;
22606;SDS011;11470;20.968;105.834;2022-07-22T23:43:41;68.40;;;37.30;;
22606;SDS011;11470;20.968;105.834;2022-07-22T23:48:46;69.55;;;38.58;;
22606;SDS011;11470;20.968;105.834;2022-07-22T23:53:51;63.00;;;37.30;;
22606;SDS011;11470;20.968;105.834;2022-07-22T23:58:57;66.90;;;40.10;;
